createdAt,value
2018-12-12T00:01:40.922Z,60.16
2018-12-12T00:04:12.273Z,59.57
2018-12-12T00:06:43.600Z,59.55
2018-12-12T00:09:12.905Z,59.06
2018-12-12T00:11:42.051Z,59.27
2018-12-12T00:14:11.415Z,58.95
2018-12-12T00:16:40.859Z,58.90
2018-12-12T00:19:10.226Z,58.88
2018-12-12T00:21:39.633Z,59.46
2018-12-12T00:24:09.786Z,59.47
2018-12-12T00:26:39.267Z,58.99
2018-12-12T00:29:08.631Z,59.38
2018-12-12T00:31:37.934Z,58.41
2018-12-12T00:34:07.518Z,59.24
2018-12-12T00:36:37.281Z,61.03
2018-12-12T00:39:08.242Z,60.43
2018-12-12T00:41:37.530Z,60.76
2018-12-12T00:44:07.305Z,60.92
2018-12-12T00:46:37.063Z,61.17
2018-12-12T00:49:06.767Z,61.19
2018-12-12T00:51:36.515Z,61.45
2018-12-12T00:54:07.246Z,60.79
2018-12-12T00:56:37.015Z,61.30
2018-12-12T00:59:06.663Z,61.92
2018-12-12T01:01:36.214Z,61.63
2018-12-12T01:04:05.588Z,61.77
2018-12-12T01:06:35.242Z,62.01
2018-12-12T01:09:07.309Z,61.47
2018-12-12T01:11:41.842Z,61.52
2018-12-12T01:14:11.313Z,61.42
2018-12-12T01:16:40.589Z,61.33
2018-12-12T01:19:10.202Z,61.41
2018-12-12T01:21:39.691Z,61.32
2018-12-12T01:24:09.823Z,61.85
2018-12-12T01:26:39.332Z,61.68
2018-12-12T01:29:09.071Z,61.82
2018-12-12T01:31:38.570Z,62.18
2018-12-12T01:34:08.065Z,62.29
2018-12-12T01:36:37.339Z,62.38
2018-12-12T01:39:07.598Z,62.28
2018-12-12T01:41:37.331Z,62.05
2018-12-12T01:44:06.775Z,62.41
2018-12-12T01:46:36.290Z,62.74
2018-12-12T01:49:05.655Z,62.14
2018-12-12T01:51:35.102Z,61.59
2018-12-12T01:54:04.539Z,61.43
2018-12-12T01:56:34.179Z,61.60
2018-12-12T01:59:03.522Z,61.05
2018-12-12T02:01:33.111Z,62.15
2018-12-12T02:04:02.301Z,62.30
2018-12-12T02:06:31.595Z,61.53
2018-12-12T02:09:00.780Z,62.46
2018-12-12T02:11:31.391Z,62.75
2018-12-12T02:14:00.959Z,62.55
2018-12-12T02:16:30.268Z,62.89
2018-12-12T02:19:00.236Z,62.46
2018-12-12T02:21:29.711Z,62.10
2018-12-12T02:23:59.204Z,61.81
2018-12-12T02:26:28.726Z,61.67
2018-12-12T02:28:58.514Z,60.83
2018-12-12T02:31:28.089Z,61.41
2018-12-12T02:33:57.632Z,61.24
2018-12-12T02:36:26.922Z,60.99
2018-12-12T02:38:56.147Z,60.76
2018-12-12T02:41:25.401Z,60.95
2018-12-12T02:43:55.900Z,61.10
2018-12-12T02:46:25.303Z,61.52
2018-12-12T02:48:54.788Z,63.73
2018-12-12T02:51:24.375Z,64.99
2018-12-12T02:53:54.119Z,65.17
2018-12-12T02:56:23.320Z,64.68
2018-12-12T02:58:52.771Z,64.16
2018-12-12T03:01:22.215Z,64.38
2018-12-12T03:03:51.823Z,64.33
2018-12-12T03:06:21.074Z,63.52
2018-12-12T03:08:51.087Z,63.48
2018-12-12T03:11:24.361Z,62.95
2018-12-12T03:13:54.237Z,63.65
2018-12-12T03:16:23.852Z,62.88
2018-12-12T03:18:53.672Z,61.97
2018-12-12T03:21:23.315Z,62.25
2018-12-12T03:23:52.794Z,62.85
2018-12-12T03:26:22.431Z,63.16
2018-12-12T03:28:51.803Z,62.68
2018-12-12T03:31:21.122Z,62.57
2018-12-12T03:33:50.708Z,62.50
2018-12-12T03:36:19.971Z,62.58
2018-12-12T03:38:49.482Z,62.25
2018-12-12T03:41:19.094Z,61.80
2018-12-12T03:43:48.307Z,61.72
2018-12-12T03:46:17.640Z,61.60
2018-12-12T03:48:47.000Z,61.54
2018-12-12T03:51:16.382Z,61.08
2018-12-12T03:53:45.827Z,61.22
2018-12-12T03:56:15.313Z,60.90
2018-12-12T03:58:44.741Z,61.12
2018-12-12T04:01:14.497Z,62.09
2018-12-12T04:03:44.012Z,61.52
2018-12-12T04:06:13.279Z,61.95
2018-12-12T04:08:42.863Z,61.21
2018-12-12T04:11:12.425Z,61.13
2018-12-12T04:13:41.716Z,61.93
2018-12-12T04:16:11.263Z,61.74
2018-12-12T04:18:40.556Z,61.45
2018-12-12T04:21:10.146Z,61.08
2018-12-12T04:23:39.507Z,60.70
2018-12-12T04:26:09.405Z,60.93
2018-12-12T04:28:38.698Z,61.05
2018-12-12T04:31:08.419Z,62.40
2018-12-12T04:33:38.138Z,61.78
2018-12-12T04:36:07.584Z,61.71
2018-12-12T04:38:37.185Z,61.74
2018-12-12T04:41:06.979Z,61.65
2018-12-12T04:43:36.185Z,62.29
2018-12-12T04:46:05.458Z,62.52
2018-12-12T04:48:35.083Z,62.50
2018-12-12T04:51:04.333Z,61.62
2018-12-12T04:53:33.645Z,61.33
2018-12-12T04:56:03.030Z,60.91
2018-12-12T04:58:32.520Z,61.51
2018-12-12T05:01:01.855Z,61.63
2018-12-12T05:03:32.330Z,61.50
2018-12-12T05:06:01.709Z,61.30
2018-12-12T05:08:31.094Z,62.03
2018-12-12T05:11:00.831Z,61.86
2018-12-12T05:13:30.103Z,62.68
2018-12-12T05:15:59.435Z,62.28
2018-12-12T05:18:28.647Z,62.15
2018-12-12T05:20:58.311Z,61.82
2018-12-12T05:23:27.943Z,62.35
2018-12-12T05:25:57.323Z,62.31
2018-12-12T05:28:27.774Z,62.03
2018-12-12T05:30:57.262Z,62.25
2018-12-12T05:33:26.438Z,62.00
2018-12-12T05:35:56.186Z,61.83
2018-12-12T05:38:25.696Z,61.85
2018-12-12T05:40:55.057Z,61.61
2018-12-12T05:43:24.717Z,61.73
2018-12-12T05:45:54.118Z,61.46
2018-12-12T05:48:23.371Z,61.39
2018-12-12T05:50:53.147Z,61.59
2018-12-12T05:53:22.390Z,61.46
2018-12-12T05:55:51.586Z,61.24
2018-12-12T05:58:21.238Z,61.26
2018-12-12T06:00:50.646Z,61.67
2018-12-12T06:03:19.955Z,61.35
2018-12-12T06:05:49.548Z,60.99
2018-12-12T06:08:19.249Z,61.28
2018-12-12T06:10:49.432Z,60.88
2018-12-12T06:13:19.101Z,60.96
2018-12-12T06:15:48.421Z,60.39
2018-12-12T06:18:17.676Z,60.30
2018-12-12T06:20:47.294Z,60.47
2018-12-12T06:23:16.484Z,60.18
2018-12-12T06:25:45.790Z,60.09
2018-12-12T06:28:15.508Z,59.88
2018-12-12T06:30:46.030Z,60.13
2018-12-12T06:33:15.408Z,60.04
2018-12-12T06:35:44.842Z,59.57
2018-12-12T06:38:14.237Z,60.15
2018-12-12T06:40:43.712Z,59.29
2018-12-12T06:43:13.461Z,58.92
2018-12-12T06:45:42.847Z,59.29
2018-12-12T06:48:12.420Z,59.39
2018-12-12T06:50:42.077Z,60.14
2018-12-12T06:53:11.356Z,59.74
2018-12-12T06:55:40.545Z,59.98
2018-12-12T06:58:10.094Z,59.88
2018-12-12T07:00:39.434Z,59.54
2018-12-12T07:03:08.841Z,58.83
2018-12-12T07:05:38.726Z,58.99
2018-12-12T07:08:08.301Z,58.51
2018-12-12T07:10:37.591Z,58.07
2018-12-12T07:13:07.447Z,58.22
2018-12-12T07:15:36.800Z,58.35
2018-12-12T07:18:06.309Z,58.22
2018-12-12T07:20:35.471Z,57.23
2018-12-12T07:23:04.667Z,56.53
2018-12-12T07:25:34.118Z,56.01
2018-12-12T07:28:03.640Z,56.15
2018-12-12T07:30:32.914Z,55.84
2018-12-12T07:33:03.478Z,56.76
2018-12-12T07:35:32.711Z,56.63
2018-12-12T07:38:02.058Z,57.03
2018-12-12T07:40:32.739Z,56.82
2018-12-12T07:43:04.283Z,57.48
2018-12-12T07:45:54.981Z,56.98
2018-12-12T07:48:26.772Z,56.87
2018-12-12T07:51:14.412Z,57.47
2018-12-12T07:53:49.108Z,56.73
2018-12-12T07:56:18.815Z,56.62
2018-12-12T07:58:48.122Z,56.01
2018-12-12T08:01:17.476Z,55.99
2018-12-12T08:03:47.240Z,56.38
2018-12-12T08:06:16.504Z,56.23
2018-12-12T08:08:45.783Z,55.66
2018-12-12T08:11:15.622Z,55.28
2018-12-12T08:13:44.858Z,55.77
2018-12-12T08:16:14.957Z,56.28
2018-12-12T08:18:44.363Z,56.67
2018-12-12T08:21:13.872Z,56.78
2018-12-12T08:23:43.408Z,56.85
2018-12-12T08:26:12.675Z,55.67
2018-12-12T08:28:41.954Z,55.48
2018-12-12T08:31:11.546Z,55.82
2018-12-12T08:33:40.745Z,56.06
2018-12-12T08:36:09.970Z,56.20
2018-12-12T08:38:39.263Z,55.89
2018-12-12T08:41:08.556Z,56.55
2018-12-12T08:43:37.807Z,57.72
2018-12-12T08:46:07.396Z,56.66
2018-12-12T08:48:36.874Z,56.97
2018-12-12T08:51:06.315Z,57.28
2018-12-12T08:53:35.607Z,57.49
2018-12-12T08:56:04.963Z,57.77
2018-12-12T08:58:34.303Z,57.19
2018-12-12T09:01:03.560Z,57.94
2018-12-12T09:03:32.993Z,57.11
2018-12-12T09:06:02.419Z,56.73
2018-12-12T09:08:32.188Z,55.00
2018-12-12T09:11:01.824Z,55.22
2018-12-12T09:13:31.393Z,55.08
2018-12-12T09:16:01.080Z,55.66
2018-12-12T09:18:30.693Z,54.85
2018-12-12T09:21:00.292Z,54.51
2018-12-12T09:23:30.069Z,55.01
2018-12-12T09:25:59.448Z,53.83
2018-12-12T09:28:28.850Z,54.09
2018-12-12T09:31:00.617Z,53.29
2018-12-12T09:33:32.322Z,52.66
2018-12-12T09:36:04.171Z,53.82
2018-12-12T09:38:33.438Z,52.59
2018-12-12T09:41:03.055Z,53.17
2018-12-12T09:43:32.864Z,51.85
2018-12-12T09:46:02.649Z,52.12
2018-12-12T09:48:31.984Z,51.92
2018-12-12T09:51:07.135Z,51.31
2018-12-12T09:53:35.341Z,50.14
2018-12-12T09:56:05.236Z,51.69
2018-12-12T09:58:34.864Z,54.49
2018-12-12T10:01:04.762Z,54.86
2018-12-12T10:03:34.308Z,52.75
2018-12-12T10:06:03.621Z,51.63
2018-12-12T10:08:33.604Z,51.21
2018-12-12T10:11:03.247Z,51.54
2018-12-12T10:13:32.972Z,51.76
2018-12-12T10:16:02.614Z,52.00
2018-12-12T10:18:32.387Z,52.01
2018-12-12T10:21:02.425Z,52.81
2018-12-12T10:23:31.677Z,53.33
2018-12-12T10:26:01.301Z,54.16
2018-12-12T10:28:31.251Z,53.12
2018-12-12T10:31:00.988Z,53.24
2018-12-12T10:33:30.707Z,52.53
2018-12-12T10:36:00.130Z,52.65
2018-12-12T10:38:29.609Z,52.56
2018-12-12T10:40:58.991Z,52.30
2018-12-12T10:43:28.826Z,52.85
2018-12-12T10:45:58.493Z,52.67
2018-12-12T10:48:28.102Z,52.72
2018-12-12T10:50:58.147Z,52.74
2018-12-12T10:53:27.737Z,53.11
2018-12-12T10:55:57.480Z,53.15
2018-12-12T10:58:27.051Z,52.26
2018-12-12T11:01:01.716Z,52.58
2018-12-12T11:03:35.484Z,52.33
2018-12-12T11:06:05.147Z,51.37
2018-12-12T11:08:35.924Z,51.95
2018-12-12T11:11:05.599Z,51.71
2018-12-12T11:13:35.105Z,51.05
2018-12-12T11:16:05.281Z,51.52
2018-12-12T11:18:35.220Z,51.09
2018-12-12T11:21:05.012Z,50.56
2018-12-12T11:23:34.277Z,49.55
2018-12-12T11:26:03.909Z,49.74
2018-12-12T11:28:33.858Z,50.74
2018-12-12T11:31:03.479Z,49.05
2018-12-12T11:33:32.915Z,49.29
2018-12-12T11:36:02.767Z,48.58
2018-12-12T11:38:32.036Z,48.93
2018-12-12T11:41:01.441Z,48.61
2018-12-12T11:43:31.084Z,47.65
2018-12-12T11:46:00.459Z,48.56
2018-12-12T11:48:29.923Z,49.07
2018-12-12T11:50:59.613Z,48.46
2018-12-12T11:53:29.366Z,48.51
2018-12-12T11:55:59.210Z,47.50
2018-12-12T11:58:29.050Z,49.03
2018-12-12T12:00:58.425Z,49.30
2018-12-12T12:03:28.460Z,49.40
2018-12-12T12:05:58.038Z,49.34
2018-12-12T12:08:27.492Z,48.42
2018-12-12T12:10:57.272Z,49.87
2018-12-12T12:13:28.568Z,50.96
2018-12-12T12:15:58.201Z,49.99
2018-12-12T12:18:27.638Z,49.33
2018-12-12T12:20:57.114Z,47.45
2018-12-12T12:23:27.400Z,47.80
2018-12-12T12:25:56.899Z,47.06
2018-12-12T12:28:26.525Z,47.62
2018-12-12T12:30:56.326Z,48.01
2018-12-12T12:33:25.744Z,48.31
2018-12-12T12:35:55.195Z,48.92
2018-12-12T12:38:25.049Z,47.98
2018-12-12T12:40:54.586Z,48.69
2018-12-12T12:43:23.994Z,49.11
2018-12-12T12:45:53.647Z,49.37
2018-12-12T12:48:23.170Z,49.45
2018-12-12T12:50:52.726Z,48.83
2018-12-12T12:53:22.400Z,48.96
2018-12-12T12:55:52.547Z,49.22
2018-12-12T12:58:22.915Z,49.81
2018-12-12T13:00:52.256Z,50.56
2018-12-12T13:03:21.653Z,50.39
2018-12-12T13:05:51.222Z,51.18
2018-12-12T13:08:20.556Z,50.88
2018-12-12T13:10:50.394Z,50.99
2018-12-12T13:13:19.968Z,51.21
2018-12-12T13:15:50.034Z,50.70
2018-12-12T13:18:19.346Z,50.65
2018-12-12T13:20:48.806Z,51.00
2018-12-12T13:23:18.272Z,52.32
2018-12-12T13:25:47.953Z,53.25
2018-12-12T13:28:17.232Z,53.17
2018-12-12T13:30:48.023Z,53.27
2018-12-12T13:33:17.362Z,52.71
2018-12-12T13:35:47.030Z,53.53
2018-12-12T13:38:16.657Z,54.00
2018-12-12T13:40:46.187Z,54.68
2018-12-12T13:43:15.417Z,54.83
2018-12-12T13:45:44.891Z,55.51
2018-12-12T13:48:14.166Z,55.62
2018-12-12T13:50:43.627Z,55.93
2018-12-12T13:53:13.433Z,56.41
2018-12-12T13:55:42.869Z,56.39
2018-12-12T13:58:12.628Z,55.95
2018-12-12T14:00:42.476Z,56.34
2018-12-12T14:03:11.703Z,56.57
2018-12-12T14:05:41.254Z,56.93
2018-12-12T14:08:10.835Z,56.95
2018-12-12T14:10:40.080Z,57.44
2018-12-12T14:13:09.671Z,57.21
2018-12-12T14:15:39.219Z,57.32
2018-12-12T14:18:08.631Z,56.78
2018-12-12T14:20:37.936Z,57.33
2018-12-12T14:23:07.529Z,57.82
2018-12-12T14:25:36.998Z,57.03
2018-12-12T14:28:06.401Z,58.04
2018-12-12T14:30:36.333Z,57.78
2018-12-12T14:33:05.762Z,57.27
2018-12-12T14:35:34.959Z,56.79
2018-12-12T14:38:05.300Z,57.00
2018-12-12T14:40:35.183Z,56.50
2018-12-12T14:43:04.890Z,55.46
2018-12-12T14:45:34.398Z,54.56
2018-12-12T14:48:03.805Z,54.51
2018-12-12T14:50:33.643Z,54.38
2018-12-12T14:53:03.224Z,54.16
2018-12-12T14:55:32.751Z,53.99
2018-12-12T14:58:02.151Z,53.89
2018-12-12T15:00:32.779Z,53.96
2018-12-12T15:03:02.405Z,53.05
2018-12-12T15:05:31.822Z,53.29
2018-12-12T15:08:01.393Z,52.66
2018-12-12T15:10:31.232Z,52.08
2018-12-12T15:13:00.580Z,51.98
2018-12-12T15:15:30.272Z,51.91
2018-12-12T15:18:00.092Z,51.68
2018-12-12T15:20:29.803Z,51.53
2018-12-12T15:22:59.152Z,51.31
2018-12-12T15:25:28.446Z,51.16
2018-12-12T15:27:57.815Z,51.44
2018-12-12T15:30:27.413Z,52.15
2018-12-12T15:32:57.018Z,51.52
2018-12-12T15:35:26.801Z,51.47
2018-12-12T15:37:56.438Z,51.54
2018-12-12T15:40:26.033Z,51.67
2018-12-12T15:42:55.509Z,51.98
2018-12-12T15:45:24.879Z,52.70
2018-12-12T15:47:54.482Z,52.42
2018-12-12T15:50:23.886Z,52.59
2018-12-12T15:52:53.206Z,52.85
2018-12-12T15:55:22.813Z,52.88
2018-12-12T15:57:52.189Z,52.57
2018-12-12T16:00:22.054Z,52.64
2018-12-12T16:02:51.979Z,53.09
2018-12-12T16:05:21.415Z,52.72
2018-12-12T16:07:50.860Z,52.99
2018-12-12T16:10:20.796Z,52.51
2018-12-12T16:12:50.435Z,52.18
2018-12-12T16:15:19.895Z,52.36
2018-12-12T16:17:49.326Z,52.40
2018-12-12T16:20:18.624Z,53.12
2018-12-12T16:22:47.836Z,53.14
2018-12-12T16:25:17.549Z,54.19
2018-12-12T16:27:47.290Z,54.41
2018-12-12T16:30:16.814Z,54.37
2018-12-12T16:32:46.149Z,56.61
2018-12-12T16:35:15.540Z,57.32
2018-12-12T16:37:45.262Z,56.83
2018-12-12T16:40:14.742Z,56.96
2018-12-12T16:42:44.346Z,55.52
2018-12-12T16:45:16.206Z,55.89
2018-12-12T16:47:45.822Z,55.60
2018-12-12T16:50:15.188Z,55.12
2018-12-12T16:52:44.689Z,55.26
2018-12-12T16:55:14.255Z,55.87
2018-12-12T16:57:43.683Z,55.39
2018-12-12T17:00:13.470Z,54.94
2018-12-12T17:02:43.285Z,55.29
2018-12-12T17:05:12.765Z,56.16
2018-12-12T17:07:42.067Z,56.15
2018-12-12T17:10:11.731Z,56.03
2018-12-12T17:12:41.296Z,55.76
2018-12-12T17:15:11.206Z,54.86
2018-12-12T17:17:40.909Z,53.21
2018-12-12T17:20:10.282Z,52.96
2018-12-12T17:22:39.791Z,52.72
2018-12-12T17:25:09.527Z,52.14
2018-12-12T17:27:38.926Z,52.22
2018-12-12T17:30:09.355Z,51.70
2018-12-12T17:32:38.787Z,51.82
2018-12-12T17:35:09.155Z,51.71
2018-12-12T17:37:38.926Z,51.83
2018-12-12T17:40:09.404Z,51.35
2018-12-12T17:42:38.948Z,51.16
2018-12-12T17:45:08.546Z,51.11
2018-12-12T17:47:38.199Z,51.25
2018-12-12T17:50:07.979Z,50.28
2018-12-12T17:52:37.515Z,51.05
2018-12-12T17:55:06.867Z,51.19
2018-12-12T17:57:36.428Z,51.20
2018-12-12T18:00:07.532Z,51.38
2018-12-12T18:02:38.994Z,51.47
2018-12-12T18:05:15.415Z,52.08
2018-12-12T18:07:45.032Z,52.34
2018-12-12T18:10:14.920Z,52.54
2018-12-12T18:12:44.133Z,52.65
2018-12-12T18:15:14.004Z,52.13
2018-12-12T18:17:45.367Z,51.75
2018-12-12T18:20:15.006Z,50.97
2018-12-12T18:22:44.627Z,51.15
2018-12-12T18:25:16.159Z,50.16
2018-12-12T18:27:45.707Z,51.15
2018-12-12T18:30:15.245Z,50.96
2018-12-12T18:32:47.045Z,51.28
2018-12-12T18:35:22.350Z,51.73
2018-12-12T18:37:51.851Z,52.31
2018-12-12T18:40:22.807Z,51.16
2018-12-12T18:42:54.121Z,50.76
2018-12-12T18:45:23.977Z,50.78
2018-12-12T18:47:53.433Z,51.25
2018-12-12T18:50:24.942Z,51.42
2018-12-12T18:53:15.985Z,51.71
2018-12-12T18:55:45.939Z,51.26
2018-12-12T18:58:15.221Z,51.01
2018-12-12T19:00:44.452Z,50.85
2018-12-12T19:03:14.122Z,50.63
2018-12-12T19:05:43.831Z,50.89
2018-12-12T19:08:13.388Z,51.66
2018-12-12T19:10:42.771Z,51.40
2018-12-12T19:13:12.357Z,50.71
2018-12-12T19:15:41.856Z,50.82
2018-12-12T19:18:11.580Z,50.95
2018-12-12T19:20:41.002Z,50.89
2018-12-12T19:23:10.553Z,50.20
2018-12-12T19:25:40.035Z,51.07
2018-12-12T19:28:09.653Z,50.64
2018-12-12T19:30:39.321Z,50.88
2018-12-12T19:33:08.765Z,51.13
2018-12-12T19:35:38.264Z,50.77
2018-12-12T19:38:07.875Z,50.89
2018-12-12T19:40:37.470Z,51.58
2018-12-12T19:43:06.931Z,50.17
2018-12-12T19:45:36.453Z,49.86
2018-12-12T19:48:05.664Z,50.36
2018-12-12T19:50:34.940Z,50.83
2018-12-12T19:53:04.167Z,51.40
2018-12-12T19:55:33.804Z,49.66
2018-12-12T19:58:03.192Z,50.09
2018-12-12T20:00:32.899Z,49.77
2018-12-12T20:03:02.698Z,49.62
2018-12-12T20:05:32.446Z,49.95
2018-12-12T20:08:02.045Z,49.68
2018-12-12T20:10:31.305Z,50.40
2018-12-12T20:13:01.156Z,51.03
2018-12-12T20:15:35.774Z,49.87
2018-12-12T20:18:05.095Z,49.76
2018-12-12T20:20:35.335Z,49.68
2018-12-12T20:23:05.080Z,48.94
2018-12-12T20:25:34.827Z,49.89
2018-12-12T20:28:04.388Z,50.57
2018-12-12T20:30:35.509Z,50.59
2018-12-12T20:33:05.082Z,50.91
2018-12-12T20:35:34.589Z,51.13
2018-12-12T20:38:04.154Z,52.54
2018-12-12T20:40:33.620Z,53.38
2018-12-12T20:43:03.180Z,53.58
2018-12-12T20:45:32.931Z,54.06
2018-12-12T20:48:02.356Z,54.63
2018-12-12T20:50:31.734Z,54.83
2018-12-12T20:53:01.091Z,54.83
2018-12-12T20:55:30.623Z,55.17
2018-12-12T20:58:00.307Z,56.50
2018-12-12T21:00:29.819Z,56.20
2018-12-12T21:02:59.408Z,55.95
2018-12-12T21:05:29.126Z,56.19
2018-12-12T21:07:58.511Z,56.48
2018-12-12T21:10:27.848Z,56.60
2018-12-12T21:12:57.516Z,57.46
2018-12-12T21:15:27.154Z,57.49
2018-12-12T21:17:56.467Z,57.84
2018-12-12T21:20:25.736Z,57.87
2018-12-12T21:22:56.753Z,57.77
2018-12-12T21:25:28.430Z,58.95
2018-12-12T21:27:57.876Z,58.85
2018-12-12T21:30:27.171Z,59.32
2018-12-12T21:32:56.828Z,59.32
2018-12-12T21:35:26.308Z,59.63
2018-12-12T21:37:55.831Z,60.19
2018-12-12T21:40:25.346Z,60.20
2018-12-12T21:42:54.820Z,60.90
2018-12-12T21:45:24.324Z,60.18
2018-12-12T21:47:53.756Z,62.00
2018-12-12T21:50:22.984Z,62.72
2018-12-12T21:52:52.318Z,65.18
2018-12-12T21:55:21.930Z,65.49
2018-12-12T21:57:51.344Z,65.84
2018-12-12T22:00:21.277Z,66.16
2018-12-12T22:02:50.959Z,65.73
2018-12-12T22:05:20.483Z,64.55
2018-12-12T22:07:50.073Z,64.84
2018-12-12T22:10:19.460Z,64.50
2018-12-12T22:12:48.977Z,64.44
2018-12-12T22:15:18.470Z,63.26
2018-12-12T22:17:47.959Z,63.66
2018-12-12T22:20:17.274Z,64.47
2018-12-12T22:22:46.500Z,64.74
2018-12-12T22:25:15.931Z,65.14
2018-12-12T22:27:45.403Z,61.18
2018-12-12T22:30:14.980Z,61.36
2018-12-12T22:32:44.375Z,63.40
2018-12-12T22:35:14.014Z,64.15
2018-12-12T22:37:43.587Z,65.76
2018-12-12T22:40:12.968Z,65.00
2018-12-12T22:42:42.428Z,65.45
2018-12-12T22:45:11.890Z,65.64
2018-12-12T22:47:41.240Z,63.95
2018-12-12T22:50:10.610Z,63.17
2018-12-12T22:52:40.035Z,60.26
2018-12-12T22:55:09.471Z,55.72
2018-12-12T22:57:39.042Z,54.68
2018-12-12T23:00:14.083Z,53.42
2018-12-12T23:02:44.620Z,52.70
2018-12-12T23:05:13.944Z,52.90
2018-12-12T23:07:43.523Z,52.43
2018-12-12T23:10:13.053Z,51.72
2018-12-12T23:12:42.622Z,51.47
2018-12-12T23:15:11.974Z,50.78
2018-12-12T23:17:41.249Z,50.46
2018-12-12T23:20:10.806Z,50.83
2018-12-12T23:22:40.157Z,50.58
2018-12-12T23:25:09.577Z,51.08
2018-12-12T23:27:38.982Z,51.21
2018-12-12T23:30:09.346Z,51.53
2018-12-12T23:32:38.945Z,51.01
2018-12-12T23:35:08.347Z,50.67
2018-12-12T23:37:38.004Z,50.29
2018-12-12T23:40:07.502Z,50.28
2018-12-12T23:42:36.823Z,49.90
2018-12-12T23:45:06.588Z,49.53
2018-12-12T23:47:36.066Z,49.46
2018-12-12T23:50:05.899Z,49.43
2018-12-12T23:52:36.309Z,50.04
2018-12-12T23:55:06.143Z,49.67
2018-12-12T23:57:35.510Z,50.24
